sensor_id;sensor_type;location;lat;lon;timestamp;P1;durP1;ratioP1;P2;durP2;ratioP2
74707;SDS011;63360;50.104;8.074;2023-08-30T00:01:30;4.55;;;2.20;;
74707;SDS011;63360;50.104;8.074;2023-08-30T00:03:56;5.03;;;2.35;;
74707;SDS011;63360;50.104;8.074;2023-08-30T00:06:23;4.13;;;2.27;;
74707;SDS011;63360;50.104;8.074;2023-08-30T00:08:50;4.75;;;2.38;;
74707;SDS011;63360;50.104;8.074;2023-08-30T00:11:16;4.53;;;2.60;;
74707;SDS011;63360;50.104;8.074;2023-08-30T00:13:43;3.53;;;2.22;;
74707;SDS011;63360;50.104;8.074;2023-08-30T00:16:09;3.53;;;2.35;;
74707;SDS011;63360;50.104;8.074;2023-08-30T00:18:35;4.67;;;2.90;;
74707;SDS011;63360;50.104;8.074;2023-08-30T00:21:02;4.05;;;2.67;;
74707;SDS011;63360;50.104;8.074;2023-08-30T00:23:28;3.90;;;2.55;;
74707;SDS011;63360;50.104;8.074;2023-08-30T00:25:54;4.25;;;2.60;;
74707;SDS011;63360;50.104;8.074;2023-08-30T00:28:21;3.80;;;2.47;;
74707;SDS011;63360;50.104;8.074;2023-08-30T00:30:52;4.13;;;2.37;;
74707;SDS011;63360;50.104;8.074;2023-08-30T00:33:18;3.58;;;2.33;;
74707;SDS011;63360;50.104;8.074;2023-08-30T00:35:45;3.60;;;2.58;;
74707;SDS011;63360;50.104;8.074;2023-08-30T00:38:11;3.80;;;2.45;;
74707;SDS011;63360;50.104;8.074;2023-08-30T00:40:38;5.28;;;2.90;;
74707;SDS011;63360;50.104;8.074;2023-08-30T00:43:04;3.60;;;2.50;;
74707;SDS011;63360;50.104;8.074;2023-08-30T00:45:31;4.20;;;2.45;;
74707;SDS011;63360;50.104;8.074;2023-08-30T00:47:58;4.18;;;2.67;;
74707;SDS011;63360;50.104;8.074;2023-08-30T00:50:24;4.00;;;2.70;;
74707;SDS011;63360;50.104;8.074;2023-08-30T00:52:50;4.57;;;2.50;;
74707;SDS011;63360;50.104;8.074;2023-08-30T00:55:17;6.30;;;2.70;;
74707;SDS011;63360;50.104;8.074;2023-08-30T00:57:43;4.55;;;2.60;;
74707;SDS011;63360;50.104;8.074;2023-08-30T01:00:13;3.97;;;2.40;;
74707;SDS011;63360;50.104;8.074;2023-08-30T01:02:39;3.50;;;2.60;;
74707;SDS011;63360;50.104;8.074;2023-08-30T01:05:06;3.08;;;1.95;;
74707;SDS011;63360;50.104;8.074;2023-08-30T01:07:32;5.87;;;2.77;;
74707;SDS011;63360;50.104;8.074;2023-08-30T01:09:59;4.03;;;2.80;;
74707;SDS011;63360;50.104;8.074;2023-08-30T01:12:45;4.38;;;2.60;;
74707;SDS011;63360;50.104;8.074;2023-08-30T01:15:19;5.25;;;3.00;;
74707;SDS011;63360;50.104;8.074;2023-08-30T01:17:47;4.60;;;2.67;;
74707;SDS011;63360;50.104;8.074;2023-08-30T01:20:14;6.60;;;2.70;;
74707;SDS011;63360;50.104;8.074;2023-08-30T01:22:47;5.00;;;2.90;;
74707;SDS011;63360;50.104;8.074;2023-08-30T01:27:42;5.57;;;2.83;;
74707;SDS011;63360;50.104;8.074;2023-08-30T01:30:09;4.57;;;3.00;;
74707;SDS011;63360;50.104;8.074;2023-08-30T01:32:37;4.10;;;2.50;;
74707;SDS011;63360;50.104;8.074;2023-08-30T01:35:05;4.80;;;2.85;;
74707;SDS011;63360;50.104;8.074;2023-08-30T01:37:32;5.57;;;2.92;;
74707;SDS011;63360;50.104;8.074;2023-08-30T01:39:59;4.90;;;2.83;;
74707;SDS011;63360;50.104;8.074;2023-08-30T01:42:26;5.75;;;3.20;;
74707;SDS011;63360;50.104;8.074;2023-08-30T01:44:53;11.47;;;2.97;;
74707;SDS011;63360;50.104;8.074;2023-08-30T01:47:23;5.88;;;3.38;;
74707;SDS011;63360;50.104;8.074;2023-08-30T01:49:52;6.35;;;3.20;;
74707;SDS011;63360;50.104;8.074;2023-08-30T01:52:19;6.63;;;3.80;;
74707;SDS011;63360;50.104;8.074;2023-08-30T01:54:46;6.28;;;3.55;;
74707;SDS011;63360;50.104;8.074;2023-08-30T01:57:12;5.50;;;3.40;;
74707;SDS011;63360;50.104;8.074;2023-08-30T01:59:38;6.88;;;2.85;;
74707;SDS011;63360;50.104;8.074;2023-08-30T02:02:05;5.47;;;3.05;;
74707;SDS011;63360;50.104;8.074;2023-08-30T02:04:31;4.50;;;2.78;;
74707;SDS011;63360;50.104;8.074;2023-08-30T02:07:02;5.68;;;3.58;;
74707;SDS011;63360;50.104;8.074;2023-08-30T02:09:36;6.50;;;3.13;;
74707;SDS011;63360;50.104;8.074;2023-08-30T02:12:04;7.20;;;3.17;;
74707;SDS011;63360;50.104;8.074;2023-08-30T02:14:33;6.05;;;3.08;;
74707;SDS011;63360;50.104;8.074;2023-08-30T02:17:00;5.20;;;2.88;;
74707;SDS011;63360;50.104;8.074;2023-08-30T02:19:27;5.90;;;3.60;;
74707;SDS011;63360;50.104;8.074;2023-08-30T02:21:53;5.87;;;3.20;;
74707;SDS011;63360;50.104;8.074;2023-08-30T02:24:19;5.25;;;3.08;;
74707;SDS011;63360;50.104;8.074;2023-08-30T02:26:46;7.50;;;3.40;;
74707;SDS011;63360;50.104;8.074;2023-08-30T02:29:12;5.63;;;3.08;;
74707;SDS011;63360;50.104;8.074;2023-08-30T02:31:39;7.30;;;3.45;;
74707;SDS011;63360;50.104;8.074;2023-08-30T02:34:05;5.43;;;3.57;;
74707;SDS011;63360;50.104;8.074;2023-08-30T02:36:32;6.15;;;3.50;;
74707;SDS011;63360;50.104;8.074;2023-08-30T02:38:58;7.28;;;3.58;;
74707;SDS011;63360;50.104;8.074;2023-08-30T02:41:24;5.32;;;3.35;;
74707;SDS011;63360;50.104;8.074;2023-08-30T02:43:51;5.60;;;3.22;;
74707;SDS011;63360;50.104;8.074;2023-08-30T02:46:17;6.07;;;3.17;;
74707;SDS011;63360;50.104;8.074;2023-08-30T02:48:43;4.85;;;2.97;;
74707;SDS011;63360;50.104;8.074;2023-08-30T02:51:10;5.00;;;2.97;;
74707;SDS011;63360;50.104;8.074;2023-08-30T02:53:36;6.80;;;3.63;;
74707;SDS011;63360;50.104;8.074;2023-08-30T02:56:02;5.35;;;3.40;;
74707;SDS011;63360;50.104;8.074;2023-08-30T02:58:29;5.87;;;3.37;;
74707;SDS011;63360;50.104;8.074;2023-08-30T03:00:59;6.15;;;3.35;;
74707;SDS011;63360;50.104;8.074;2023-08-30T03:03:26;6.80;;;3.65;;
74707;SDS011;63360;50.104;8.074;2023-08-30T03:05:52;7.45;;;3.50;;
74707;SDS011;63360;50.104;8.074;2023-08-30T03:08:18;6.57;;;4.10;;
74707;SDS011;63360;50.104;8.074;2023-08-30T03:10:45;5.70;;;3.53;;
74707;SDS011;63360;50.104;8.074;2023-08-30T03:13:11;7.20;;;3.90;;
74707;SDS011;63360;50.104;8.074;2023-08-30T03:15:38;6.40;;;3.88;;
74707;SDS011;63360;50.104;8.074;2023-08-30T03:18:04;7.38;;;3.83;;
74707;SDS011;63360;50.104;8.074;2023-08-30T03:20:31;7.13;;;4.20;;
74707;SDS011;63360;50.104;8.074;2023-08-30T03:22:57;6.30;;;3.80;;
74707;SDS011;63360;50.104;8.074;2023-08-30T03:25:24;6.40;;;3.53;;
74707;SDS011;63360;50.104;8.074;2023-08-30T03:27:50;6.38;;;3.70;;
74707;SDS011;63360;50.104;8.074;2023-08-30T03:30:17;5.88;;;3.55;;
74707;SDS011;63360;50.104;8.074;2023-08-30T03:32:43;6.78;;;3.72;;
74707;SDS011;63360;50.104;8.074;2023-08-30T03:35:09;7.60;;;4.30;;
74707;SDS011;63360;50.104;8.074;2023-08-30T03:37:36;8.77;;;4.00;;
74707;SDS011;63360;50.104;8.074;2023-08-30T03:40:02;9.05;;;4.20;;
74707;SDS011;63360;50.104;8.074;2023-08-30T03:42:30;7.30;;;4.30;;
74707;SDS011;63360;50.104;8.074;2023-08-30T03:44:57;8.65;;;4.45;;
74707;SDS011;63360;50.104;8.074;2023-08-30T03:47:23;8.00;;;4.60;;
74707;SDS011;63360;50.104;8.074;2023-08-30T03:49:49;6.88;;;4.38;;
74707;SDS011;63360;50.104;8.074;2023-08-30T03:52:16;7.45;;;4.25;;
74707;SDS011;63360;50.104;8.074;2023-08-30T03:54:42;7.40;;;4.40;;
74707;SDS011;63360;50.104;8.074;2023-08-30T03:57:08;7.80;;;4.47;;
74707;SDS011;63360;50.104;8.074;2023-08-30T03:59:35;9.43;;;4.80;;
74707;SDS011;63360;50.104;8.074;2023-08-30T04:02:01;9.48;;;4.95;;
74707;SDS011;63360;50.104;8.074;2023-08-30T04:04:27;8.07;;;4.78;;
74707;SDS011;63360;50.104;8.074;2023-08-30T04:06:54;9.70;;;5.38;;
74707;SDS011;63360;50.104;8.074;2023-08-30T04:09:20;9.80;;;5.10;;
74707;SDS011;63360;50.104;8.074;2023-08-30T04:11:47;8.50;;;5.20;;
74707;SDS011;63360;50.104;8.074;2023-08-30T04:14:13;10.10;;;5.30;;
74707;SDS011;63360;50.104;8.074;2023-08-30T04:16:39;9.05;;;5.28;;
74707;SDS011;63360;50.104;8.074;2023-08-30T04:19:06;8.75;;;4.93;;
74707;SDS011;63360;50.104;8.074;2023-08-30T04:21:32;9.43;;;5.45;;
74707;SDS011;63360;50.104;8.074;2023-08-30T04:23:58;10.20;;;5.37;;
74707;SDS011;63360;50.104;8.074;2023-08-30T04:26:25;10.65;;;5.93;;
74707;SDS011;63360;50.104;8.074;2023-08-30T04:28:51;11.57;;;6.45;;
74707;SDS011;63360;50.104;8.074;2023-08-30T04:31:17;10.35;;;6.15;;
74707;SDS011;63360;50.104;8.074;2023-08-30T04:33:44;10.32;;;5.90;;
74707;SDS011;63360;50.104;8.074;2023-08-30T04:36:10;9.93;;;5.20;;
74707;SDS011;63360;50.104;8.074;2023-08-30T04:38:36;11.30;;;5.90;;
74707;SDS011;63360;50.104;8.074;2023-08-30T04:41:13;9.57;;;6.05;;
74707;SDS011;63360;50.104;8.074;2023-08-30T04:43:40;9.95;;;5.82;;
74707;SDS011;63360;50.104;8.074;2023-08-30T04:46:06;9.65;;;5.22;;
74707;SDS011;63360;50.104;8.074;2023-08-30T04:48:32;9.07;;;5.33;;
74707;SDS011;63360;50.104;8.074;2023-08-30T04:51:00;10.43;;;5.50;;
74707;SDS011;63360;50.104;8.074;2023-08-30T04:53:26;10.57;;;5.55;;
74707;SDS011;63360;50.104;8.074;2023-08-30T04:55:53;9.07;;;4.90;;
74707;SDS011;63360;50.104;8.074;2023-08-30T04:58:19;9.38;;;5.63;;
74707;SDS011;63360;50.104;8.074;2023-08-30T05:00:45;10.27;;;5.60;;
74707;SDS011;63360;50.104;8.074;2023-08-30T05:03:12;10.02;;;5.50;;
74707;SDS011;63360;50.104;8.074;2023-08-30T05:05:38;11.77;;;5.78;;
74707;SDS011;63360;50.104;8.074;2023-08-30T05:08:05;10.07;;;6.10;;
74707;SDS011;63360;50.104;8.074;2023-08-30T05:10:32;9.85;;;5.55;;
74707;SDS011;63360;50.104;8.074;2023-08-30T05:12:58;9.47;;;5.60;;
74707;SDS011;63360;50.104;8.074;2023-08-30T05:15:24;10.23;;;5.85;;
74707;SDS011;63360;50.104;8.074;2023-08-30T05:17:51;9.45;;;5.93;;
74707;SDS011;63360;50.104;8.074;2023-08-30T05:20:17;10.68;;;5.78;;
74707;SDS011;63360;50.104;8.074;2023-08-30T05:22:43;10.18;;;5.57;;
74707;SDS011;63360;50.104;8.074;2023-08-30T05:25:10;9.17;;;5.23;;
74707;SDS011;63360;50.104;8.074;2023-08-30T05:27:36;11.15;;;6.40;;
74707;SDS011;63360;50.104;8.074;2023-08-30T05:30:02;10.40;;;6.15;;
74707;SDS011;63360;50.104;8.074;2023-08-30T05:32:29;10.23;;;5.47;;
74707;SDS011;63360;50.104;8.074;2023-08-30T05:34:56;10.95;;;6.28;;
74707;SDS011;63360;50.104;8.074;2023-08-30T05:37:22;11.50;;;6.00;;
74707;SDS011;63360;50.104;8.074;2023-08-30T05:39:48;10.48;;;6.07;;
74707;SDS011;63360;50.104;8.074;2023-08-30T05:42:15;11.40;;;6.20;;
74707;SDS011;63360;50.104;8.074;2023-08-30T05:44:41;8.85;;;5.47;;
74707;SDS011;63360;50.104;8.074;2023-08-30T05:47:07;9.88;;;5.50;;
74707;SDS011;63360;50.104;8.074;2023-08-30T05:49:34;10.57;;;5.57;;
74707;SDS011;63360;50.104;8.074;2023-08-30T05:52:00;12.45;;;5.97;;
74707;SDS011;63360;50.104;8.074;2023-08-30T05:54:26;9.98;;;5.63;;
74707;SDS011;63360;50.104;8.074;2023-08-30T05:56:55;10.13;;;5.50;;
74707;SDS011;63360;50.104;8.074;2023-08-30T05:59:22;11.05;;;5.50;;
74707;SDS011;63360;50.104;8.074;2023-08-30T06:01:48;10.13;;;5.60;;
74707;SDS011;63360;50.104;8.074;2023-08-30T06:04:14;10.98;;;5.75;;
74707;SDS011;63360;50.104;8.074;2023-08-30T06:06:41;9.02;;;5.35;;
74707;SDS011;63360;50.104;8.074;2023-08-30T06:09:07;9.93;;;6.13;;
74707;SDS011;63360;50.104;8.074;2023-08-30T06:11:33;10.65;;;5.65;;
74707;SDS011;63360;50.104;8.074;2023-08-30T06:14:01;9.93;;;5.70;;
74707;SDS011;63360;50.104;8.074;2023-08-30T06:16:27;10.52;;;5.55;;
74707;SDS011;63360;50.104;8.074;2023-08-30T06:18:54;13.82;;;6.18;;
74707;SDS011;63360;50.104;8.074;2023-08-30T06:21:20;9.93;;;5.35;;
74707;SDS011;63360;50.104;8.074;2023-08-30T06:23:46;12.38;;;5.65;;
74707;SDS011;63360;50.104;8.074;2023-08-30T06:26:13;11.07;;;6.10;;
74707;SDS011;63360;50.104;8.074;2023-08-30T06:28:39;11.20;;;6.00;;
74707;SDS011;63360;50.104;8.074;2023-08-30T06:31:08;10.82;;;6.63;;
74707;SDS011;63360;50.104;8.074;2023-08-30T06:33:34;12.02;;;6.97;;
74707;SDS011;63360;50.104;8.074;2023-08-30T06:36:02;12.35;;;6.28;;
74707;SDS011;63360;50.104;8.074;2023-08-30T06:38:28;9.63;;;6.23;;
74707;SDS011;63360;50.104;8.074;2023-08-30T06:40:57;11.50;;;6.47;;
74707;SDS011;63360;50.104;8.074;2023-08-30T06:43:23;11.60;;;6.60;;
74707;SDS011;63360;50.104;8.074;2023-08-30T06:45:50;12.80;;;7.30;;
74707;SDS011;63360;50.104;8.074;2023-08-30T06:48:16;10.75;;;6.40;;
74707;SDS011;63360;50.104;8.074;2023-08-30T06:50:42;10.67;;;6.30;;
74707;SDS011;63360;50.104;8.074;2023-08-30T06:53:09;10.00;;;6.07;;
74707;SDS011;63360;50.104;8.074;2023-08-30T06:55:35;10.20;;;5.95;;
74707;SDS011;63360;50.104;8.074;2023-08-30T06:58:03;10.60;;;6.25;;
74707;SDS011;63360;50.104;8.074;2023-08-30T07:00:29;10.50;;;6.07;;
74707;SDS011;63360;50.104;8.074;2023-08-30T07:02:56;10.23;;;5.90;;
74707;SDS011;63360;50.104;8.074;2023-08-30T07:05:22;11.90;;;6.50;;
74707;SDS011;63360;50.104;8.074;2023-08-30T07:07:49;10.88;;;6.18;;
74707;SDS011;63360;50.104;8.074;2023-08-30T07:10:15;9.82;;;6.28;;
74707;SDS011;63360;50.104;8.074;2023-08-30T07:12:42;9.10;;;5.93;;
74707;SDS011;63360;50.104;8.074;2023-08-30T07:15:08;9.90;;;6.50;;
74707;SDS011;63360;50.104;8.074;2023-08-30T07:17:35;9.63;;;6.15;;
74707;SDS011;63360;50.104;8.074;2023-08-30T07:20:19;8.40;;;5.72;;
74707;SDS011;63360;50.104;8.074;2023-08-30T07:22:45;9.52;;;6.43;;
74707;SDS011;63360;50.104;8.074;2023-08-30T07:25:12;10.05;;;6.15;;
74707;SDS011;63360;50.104;8.074;2023-08-30T07:27:39;10.07;;;6.23;;
74707;SDS011;63360;50.104;8.074;2023-08-30T07:30:06;9.43;;;6.15;;
74707;SDS011;63360;50.104;8.074;2023-08-30T07:32:36;10.38;;;6.70;;
74707;SDS011;63360;50.104;8.074;2023-08-30T07:35:04;8.65;;;5.80;;
74707;SDS011;63360;50.104;8.074;2023-08-30T07:37:31;10.05;;;5.55;;
74707;SDS011;63360;50.104;8.074;2023-08-30T07:39:57;10.10;;;5.80;;
74707;SDS011;63360;50.104;8.074;2023-08-30T07:42:24;9.52;;;5.82;;
74707;SDS011;63360;50.104;8.074;2023-08-30T07:44:50;9.15;;;5.30;;
74707;SDS011;63360;50.104;8.074;2023-08-30T07:47:17;9.07;;;5.35;;
74707;SDS011;63360;50.104;8.074;2023-08-30T07:49:43;9.02;;;5.40;;
74707;SDS011;63360;50.104;8.074;2023-08-30T07:52:09;8.07;;;5.30;;
74707;SDS011;63360;50.104;8.074;2023-08-30T07:54:37;9.07;;;5.75;;
74707;SDS011;63360;50.104;8.074;2023-08-30T07:57:04;10.00;;;5.53;;
74707;SDS011;63360;50.104;8.074;2023-08-30T07:59:35;8.05;;;4.93;;
74707;SDS011;63360;50.104;8.074;2023-08-30T08:02:01;9.45;;;5.53;;
74707;SDS011;63360;50.104;8.074;2023-08-30T08:04:28;7.63;;;4.60;;
74707;SDS011;63360;50.104;8.074;2023-08-30T08:06:55;8.50;;;5.40;;
74707;SDS011;63360;50.104;8.074;2023-08-30T08:09:22;8.45;;;5.10;;
74707;SDS011;63360;50.104;8.074;2023-08-30T08:11:49;8.52;;;5.45;;
74707;SDS011;63360;50.104;8.074;2023-08-30T08:14:15;10.10;;;5.40;;
74707;SDS011;63360;50.104;8.074;2023-08-30T08:16:42;8.53;;;4.93;;
74707;SDS011;63360;50.104;8.074;2023-08-30T08:19:08;11.15;;;5.72;;
74707;SDS011;63360;50.104;8.074;2023-08-30T08:21:34;8.40;;;5.32;;
74707;SDS011;63360;50.104;8.074;2023-08-30T08:24:01;8.55;;;4.63;;
74707;SDS011;63360;50.104;8.074;2023-08-30T08:26:27;9.15;;;5.55;;
74707;SDS011;63360;50.104;8.074;2023-08-30T08:28:54;7.77;;;4.80;;
74707;SDS011;63360;50.104;8.074;2023-08-30T08:31:21;7.65;;;5.25;;
74707;SDS011;63360;50.104;8.074;2023-08-30T08:33:51;7.22;;;5.07;;
74707;SDS011;63360;50.104;8.074;2023-08-30T08:36:18;8.50;;;4.85;;
74707;SDS011;63360;50.104;8.074;2023-08-30T08:38:44;7.95;;;4.70;;
74707;SDS011;63360;50.104;8.074;2023-08-30T08:41:14;7.30;;;4.60;;
74707;SDS011;63360;50.104;8.074;2023-08-30T08:43:41;8.43;;;5.03;;
74707;SDS011;63360;50.104;8.074;2023-08-30T08:46:08;6.80;;;4.50;;
74707;SDS011;63360;50.104;8.074;2023-08-30T08:48:38;6.60;;;4.57;;
74707;SDS011;63360;50.104;8.074;2023-08-30T08:51:05;8.10;;;4.88;;
74707;SDS011;63360;50.104;8.074;2023-08-30T08:53:32;7.40;;;4.70;;
74707;SDS011;63360;50.104;8.074;2023-08-30T08:55:58;7.90;;;4.93;;
74707;SDS011;63360;50.104;8.074;2023-08-30T08:58:25;8.38;;;5.05;;
74707;SDS011;63360;50.104;8.074;2023-08-30T09:00:52;8.25;;;5.40;;
74707;SDS011;63360;50.104;8.074;2023-08-30T09:03:19;7.53;;;4.72;;
74707;SDS011;63360;50.104;8.074;2023-08-30T09:05:47;7.67;;;4.10;;
74707;SDS011;63360;50.104;8.074;2023-08-30T09:08:15;7.18;;;4.47;;
74707;SDS011;63360;50.104;8.074;2023-08-30T09:10:41;5.57;;;3.92;;
74707;SDS011;63360;50.104;8.074;2023-08-30T09:13:08;7.15;;;4.63;;
74707;SDS011;63360;50.104;8.074;2023-08-30T09:15:35;5.90;;;3.85;;
74707;SDS011;63360;50.104;8.074;2023-08-30T09:18:04;7.73;;;4.50;;
74707;SDS011;63360;50.104;8.074;2023-08-30T09:20:40;5.95;;;4.00;;
74707;SDS011;63360;50.104;8.074;2023-08-30T09:23:15;6.85;;;4.75;;
74707;SDS011;63360;50.104;8.074;2023-08-30T09:25:41;7.22;;;4.30;;
74707;SDS011;63360;50.104;8.074;2023-08-30T09:28:08;7.20;;;3.95;;
74707;SDS011;63360;50.104;8.074;2023-08-30T09:30:34;6.13;;;3.90;;
74707;SDS011;63360;50.104;8.074;2023-08-30T09:33:01;6.60;;;3.97;;
74707;SDS011;63360;50.104;8.074;2023-08-30T09:35:29;7.38;;;3.92;;
74707;SDS011;63360;50.104;8.074;2023-08-30T09:37:55;6.70;;;3.47;;
74707;SDS011;63360;50.104;8.074;2023-08-30T09:40:21;5.05;;;3.67;;
74707;SDS011;63360;50.104;8.074;2023-08-30T09:42:48;4.63;;;3.23;;
74707;SDS011;63360;50.104;8.074;2023-08-30T09:45:34;5.88;;;4.00;;
74707;SDS011;63360;50.104;8.074;2023-08-30T09:48:01;6.60;;;4.13;;
74707;SDS011;63360;50.104;8.074;2023-08-30T09:50:27;5.53;;;3.60;;
74707;SDS011;63360;50.104;8.074;2023-08-30T09:52:54;6.18;;;4.18;;
74707;SDS011;63360;50.104;8.074;2023-08-30T09:58:38;6.07;;;3.75;;
74707;SDS011;63360;50.104;8.074;2023-08-30T10:01:04;5.18;;;3.55;;
74707;SDS011;63360;50.104;8.074;2023-08-30T10:03:31;5.25;;;3.70;;
74707;SDS011;63360;50.104;8.074;2023-08-30T10:05:59;6.65;;;3.20;;
74707;SDS011;63360;50.104;8.074;2023-08-30T10:08:29;5.03;;;3.40;;
74707;SDS011;63360;50.104;8.074;2023-08-30T10:11:00;4.63;;;2.85;;
74707;SDS011;63360;50.104;8.074;2023-08-30T10:13:27;4.70;;;2.80;;
74707;SDS011;63360;50.104;8.074;2023-08-30T10:15:57;6.90;;;3.08;;
74707;SDS011;63360;50.104;8.074;2023-08-30T10:18:27;5.00;;;3.00;;
74707;SDS011;63360;50.104;8.074;2023-08-30T10:20:55;4.73;;;2.80;;
74707;SDS011;63360;50.104;8.074;2023-08-30T10:23:21;6.80;;;2.92;;
74707;SDS011;63360;50.104;8.074;2023-08-30T10:25:49;6.82;;;3.30;;
74707;SDS011;63360;50.104;8.074;2023-08-30T10:28:17;5.97;;;3.38;;
74707;SDS011;63360;50.104;8.074;2023-08-30T10:30:44;5.18;;;2.80;;
74707;SDS011;63360;50.104;8.074;2023-08-30T10:33:11;4.53;;;2.80;;
74707;SDS011;63360;50.104;8.074;2023-08-30T10:35:48;6.35;;;3.30;;
74707;SDS011;63360;50.104;8.074;2023-08-30T10:38:24;6.20;;;3.67;;
74707;SDS011;63360;50.104;8.074;2023-08-30T10:40:50;5.32;;;3.63;;
74707;SDS011;63360;50.104;8.074;2023-08-30T10:43:17;6.68;;;3.83;;
74707;SDS011;63360;50.104;8.074;2023-08-30T10:46:03;6.67;;;4.00;;
74707;SDS011;63360;50.104;8.074;2023-08-30T10:48:39;8.05;;;3.75;;
74707;SDS011;63360;50.104;8.074;2023-08-30T10:51:07;6.13;;;3.30;;
74707;SDS011;63360;50.104;8.074;2023-08-30T10:53:42;5.28;;;2.92;;
74707;SDS011;63360;50.104;8.074;2023-08-30T10:56:11;5.53;;;3.47;;
74707;SDS011;63360;50.104;8.074;2023-08-30T10:58:39;6.93;;;3.73;;
74707;SDS011;63360;50.104;8.074;2023-08-30T11:01:06;6.15;;;3.20;;
74707;SDS011;63360;50.104;8.074;2023-08-30T11:03:32;5.50;;;3.10;;
74707;SDS011;63360;50.104;8.074;2023-08-30T11:05:59;4.15;;;2.55;;
74707;SDS011;63360;50.104;8.074;2023-08-30T11:08:28;4.63;;;2.65;;
74707;SDS011;63360;50.104;8.074;2023-08-30T11:11:03;4.90;;;2.63;;
74707;SDS011;63360;50.104;8.074;2023-08-30T11:13:31;4.65;;;2.72;;
74707;SDS011;63360;50.104;8.074;2023-08-30T11:16:00;5.30;;;2.60;;
74707;SDS011;63360;50.104;8.074;2023-08-30T11:18:27;5.55;;;2.92;;
74707;SDS011;63360;50.104;8.074;2023-08-30T11:20:57;5.72;;;2.78;;
74707;SDS011;63360;50.104;8.074;2023-08-30T11:23:25;4.10;;;2.57;;
74707;SDS011;63360;50.104;8.074;2023-08-30T11:25:51;6.07;;;2.78;;
74707;SDS011;63360;50.104;8.074;2023-08-30T11:28:24;4.35;;;2.67;;
74707;SDS011;63360;50.104;8.074;2023-08-30T11:30:54;4.20;;;2.63;;
74707;SDS011;63360;50.104;8.074;2023-08-30T11:33:21;5.10;;;2.60;;
74707;SDS011;63360;50.104;8.074;2023-08-30T11:35:48;5.00;;;3.00;;
74707;SDS011;63360;50.104;8.074;2023-08-30T11:38:15;4.85;;;2.70;;
74707;SDS011;63360;50.104;8.074;2023-08-30T11:40:42;4.88;;;2.58;;
74707;SDS011;63360;50.104;8.074;2023-08-30T11:43:08;6.78;;;2.35;;
74707;SDS011;63360;50.104;8.074;2023-08-30T11:45:36;4.35;;;2.50;;
74707;SDS011;63360;50.104;8.074;2023-08-30T11:48:02;5.87;;;2.40;;
74707;SDS011;63360;50.104;8.074;2023-08-30T11:50:29;3.90;;;2.22;;
74707;SDS011;63360;50.104;8.074;2023-08-30T11:53:08;4.93;;;2.00;;
74707;SDS011;63360;50.104;8.074;2023-08-30T11:55:35;3.80;;;2.05;;
74707;SDS011;63360;50.104;8.074;2023-08-30T11:58:02;3.33;;;1.95;;
74707;SDS011;63360;50.104;8.074;2023-08-30T12:00:29;3.83;;;2.00;;
74707;SDS011;63360;50.104;8.074;2023-08-30T12:02:59;4.30;;;1.90;;
74707;SDS011;63360;50.104;8.074;2023-08-30T12:05:25;4.38;;;2.13;;
74707;SDS011;63360;50.104;8.074;2023-08-30T12:07:51;3.65;;;1.98;;
74707;SDS011;63360;50.104;8.074;2023-08-30T12:10:18;4.00;;;2.20;;
74707;SDS011;63360;50.104;8.074;2023-08-30T12:12:45;3.73;;;2.20;;
74707;SDS011;63360;50.104;8.074;2023-08-30T12:15:12;4.85;;;2.60;;
74707;SDS011;63360;50.104;8.074;2023-08-30T12:17:39;4.28;;;2.33;;
74707;SDS011;63360;50.104;8.074;2023-08-30T12:20:05;4.93;;;2.20;;
74707;SDS011;63360;50.104;8.074;2023-08-30T12:22:38;6.88;;;2.85;;
74707;SDS011;63360;50.104;8.074;2023-08-30T12:27:43;4.85;;;2.40;;
74707;SDS011;63360;50.104;8.074;2023-08-30T12:30:10;6.55;;;2.70;;
74707;SDS011;63360;50.104;8.074;2023-08-30T12:32:36;5.20;;;2.63;;
74707;SDS011;63360;50.104;8.074;2023-08-30T12:35:02;5.20;;;2.80;;
74707;SDS011;63360;50.104;8.074;2023-08-30T12:37:29;5.43;;;2.70;;
74707;SDS011;63360;50.104;8.074;2023-08-30T12:39:55;5.75;;;2.60;;
74707;SDS011;63360;50.104;8.074;2023-08-30T12:42:22;4.97;;;2.55;;
74707;SDS011;63360;50.104;8.074;2023-08-30T12:44:48;4.78;;;2.30;;
74707;SDS011;63360;50.104;8.074;2023-08-30T12:47:14;4.57;;;2.25;;
74707;SDS011;63360;50.104;8.074;2023-08-30T12:49:41;5.97;;;2.43;;
74707;SDS011;63360;50.104;8.074;2023-08-30T12:52:07;4.03;;;2.17;;
74707;SDS011;63360;50.104;8.074;2023-08-30T12:54:33;5.75;;;2.55;;
74707;SDS011;63360;50.104;8.074;2023-08-30T12:57:00;6.65;;;2.53;;
74707;SDS011;63360;50.104;8.074;2023-08-30T12:59:26;4.88;;;2.28;;
74707;SDS011;63360;50.104;8.074;2023-08-30T13:01:52;6.13;;;2.50;;
74707;SDS011;63360;50.104;8.074;2023-08-30T13:04:19;5.38;;;2.40;;
74707;SDS011;63360;50.104;8.074;2023-08-30T13:06:45;5.03;;;2.47;;
74707;SDS011;63360;50.104;8.074;2023-08-30T13:09:11;5.55;;;2.42;;
74707;SDS011;63360;50.104;8.074;2023-08-30T13:11:38;5.15;;;2.45;;
74707;SDS011;63360;50.104;8.074;2023-08-30T13:14:04;7.43;;;2.73;;
74707;SDS011;63360;50.104;8.074;2023-08-30T13:16:30;7.00;;;2.80;;
74707;SDS011;63360;50.104;8.074;2023-08-30T13:18:57;5.10;;;2.50;;
74707;SDS011;63360;50.104;8.074;2023-08-30T13:21:23;8.02;;;2.75;;
74707;SDS011;63360;50.104;8.074;2023-08-30T13:24:04;6.43;;;2.70;;
74707;SDS011;63360;50.104;8.074;2023-08-30T13:26:31;5.30;;;2.43;;
74707;SDS011;63360;50.104;8.074;2023-08-30T13:28:57;5.18;;;2.60;;
74707;SDS011;63360;50.104;8.074;2023-08-30T13:31:25;5.00;;;2.60;;
74707;SDS011;63360;50.104;8.074;2023-08-30T13:33:51;5.63;;;2.47;;
74707;SDS011;63360;50.104;8.074;2023-08-30T13:36:17;5.18;;;2.63;;
74707;SDS011;63360;50.104;8.074;2023-08-30T13:38:44;5.00;;;2.57;;
74707;SDS011;63360;50.104;8.074;2023-08-30T13:41:10;4.97;;;2.65;;
74707;SDS011;63360;50.104;8.074;2023-08-30T13:43:36;5.50;;;2.53;;
74707;SDS011;63360;50.104;8.074;2023-08-30T13:46:02;3.92;;;2.20;;
74707;SDS011;63360;50.104;8.074;2023-08-30T13:48:29;4.68;;;2.45;;
74707;SDS011;63360;50.104;8.074;2023-08-30T13:50:55;5.17;;;2.60;;
74707;SDS011;63360;50.104;8.074;2023-08-30T13:53:22;6.97;;;2.85;;
74707;SDS011;63360;50.104;8.074;2023-08-30T13:55:48;5.43;;;3.00;;
74707;SDS011;63360;50.104;8.074;2023-08-30T13:58:15;4.97;;;2.72;;
74707;SDS011;63360;50.104;8.074;2023-08-30T14:00:41;5.80;;;2.70;;
74707;SDS011;63360;50.104;8.074;2023-08-30T14:03:07;6.40;;;2.50;;
74707;SDS011;63360;50.104;8.074;2023-08-30T14:05:35;4.10;;;2.35;;
74707;SDS011;63360;50.104;8.074;2023-08-30T14:08:01;5.25;;;2.50;;
74707;SDS011;63360;50.104;8.074;2023-08-30T14:10:27;7.55;;;2.72;;
74707;SDS011;63360;50.104;8.074;2023-08-30T14:12:54;6.55;;;2.53;;
74707;SDS011;63360;50.104;8.074;2023-08-30T14:15:20;4.70;;;2.47;;
74707;SDS011;63360;50.104;8.074;2023-08-30T14:17:47;6.03;;;2.38;;
74707;SDS011;63360;50.104;8.074;2023-08-30T14:20:13;5.55;;;2.33;;
74707;SDS011;63360;50.104;8.074;2023-08-30T14:22:40;5.18;;;2.58;;
74707;SDS011;63360;50.104;8.074;2023-08-30T14:25:06;5.68;;;2.70;;
74707;SDS011;63360;50.104;8.074;2023-08-30T14:27:38;4.77;;;2.60;;
74707;SDS011;63360;50.104;8.074;2023-08-30T14:30:05;4.53;;;2.40;;
74707;SDS011;63360;50.104;8.074;2023-08-30T14:32:32;5.07;;;2.38;;
74707;SDS011;63360;50.104;8.074;2023-08-30T14:34:58;4.38;;;2.30;;
74707;SDS011;63360;50.104;8.074;2023-08-30T14:37:24;5.80;;;2.42;;
74707;SDS011;63360;50.104;8.074;2023-08-30T14:39:52;4.20;;;2.40;;
74707;SDS011;63360;50.104;8.074;2023-08-30T14:42:19;3.97;;;2.15;;
74707;SDS011;63360;50.104;8.074;2023-08-30T14:44:48;4.75;;;1.83;;
74707;SDS011;63360;50.104;8.074;2023-08-30T14:47:14;3.25;;;1.73;;
74707;SDS011;63360;50.104;8.074;2023-08-30T14:49:41;4.53;;;1.92;;
74707;SDS011;63360;50.104;8.074;2023-08-30T14:52:07;4.97;;;1.73;;
74707;SDS011;63360;50.104;8.074;2023-08-30T14:54:33;3.35;;;1.90;;